createdAt,value
2023-02-16T00:00:50.004Z,9.20
2023-02-16T00:03:36.027Z,9.10
2023-02-16T00:06:21.757Z,9.20
2023-02-16T00:09:07.367Z,9.20
2023-02-16T00:12:13.282Z,9.30
2023-02-16T00:14:58.727Z,9.30
2023-02-16T00:17:44.630Z,9.30
2023-02-16T00:20:30.501Z,9.20
2023-02-16T00:23:16.201Z,9.30
2023-02-16T00:26:01.982Z,9.20
2023-02-16T00:28:52.048Z,9.30
2023-02-16T00:31:37.830Z,9.20
2023-02-16T00:34:32.745Z,9.20
2023-02-16T00:37:18.925Z,9.20
2023-02-16T00:40:04.886Z,9.10
2023-02-16T00:42:50.305Z,9.10
2023-02-16T00:45:38.087Z,9.20
2023-02-16T00:48:24.408Z,9.10
2023-02-16T00:51:25.221Z,9.30
2023-02-16T00:54:11.811Z,9.30
2023-02-16T00:56:57.984Z,9.30
2023-02-16T00:59:44.052Z,9.40
2023-02-16T01:02:30.940Z,9.20
2023-02-16T01:05:17.062Z,9.30
2023-02-16T01:08:25.032Z,9.30
2023-02-16T01:11:10.761Z,9.10
2023-02-16T01:13:59.532Z,9.10
2023-02-16T01:16:45.836Z,8.90
2023-02-16T01:19:32.867Z,8.80
2023-02-16T01:22:18.780Z,8.90
2023-02-16T01:25:04.985Z,9.00
2023-02-16T01:27:50.507Z,9.00
2023-02-16T01:30:36.010Z,8.90
2023-02-16T01:33:22.023Z,9.00
2023-02-16T01:36:19.859Z,9.10
2023-02-16T01:39:05.862Z,9.10
2023-02-16T01:42:02.512Z,9.00
2023-02-16T01:44:51.103Z,9.00
2023-02-16T01:47:41.733Z,8.90
2023-02-16T01:50:34.238Z,9.00
2023-02-16T01:53:26.743Z,9.10
2023-02-16T01:56:24.436Z,9.20
2023-02-16T01:59:17.707Z,8.90
2023-02-16T02:02:05.655Z,8.90
2023-02-16T02:05:15.768Z,8.80
2023-02-16T02:08:07.496Z,8.80
2023-02-16T02:11:05.852Z,8.90
2023-02-16T02:13:57.898Z,8.80
2023-02-16T02:16:55.033Z,9.00
2023-02-16T02:19:49.415Z,8.90
2023-02-16T02:23:24.577Z,8.80
2023-02-16T02:26:56.234Z,8.80
2023-02-16T02:30:08.098Z,9.00
2023-02-16T02:33:10.647Z,9.00
2023-02-16T02:36:08.602Z,8.80
2023-02-16T02:39:04.356Z,9.00
2023-02-16T02:42:06.916Z,8.80
2023-02-16T02:45:14.149Z,8.80
2023-02-16T02:48:00.026Z,8.80
2023-02-16T02:51:09.811Z,8.80
2023-02-16T02:54:18.735Z,8.90
2023-02-16T02:57:31.437Z,8.90
2023-02-16T03:00:40.081Z,9.00
2023-02-16T03:03:32.189Z,8.60
2023-02-16T03:06:23.638Z,8.90
2023-02-16T03:09:12.160Z,8.80
2023-02-16T03:12:18.610Z,8.80
2023-02-16T03:15:06.521Z,8.90
2023-02-16T03:18:13.928Z,8.80
2023-02-16T03:21:18.754Z,8.60
2023-02-16T03:24:27.210Z,8.70
2023-02-16T03:27:32.797Z,8.50
2023-02-16T03:30:21.034Z,8.50
2023-02-16T03:33:06.960Z,8.40
2023-02-16T03:35:53.418Z,8.60
2023-02-16T03:38:39.438Z,8.60
2023-02-16T03:41:25.859Z,8.50
2023-02-16T03:44:11.225Z,8.40
2023-02-16T03:46:58.109Z,8.30
2023-02-16T03:49:43.562Z,8.40
2023-02-16T03:52:29.111Z,8.30
2023-02-16T03:55:15.323Z,8.40
2023-02-16T03:58:01.072Z,8.50
2023-02-16T04:00:46.940Z,8.50
2023-02-16T04:03:34.237Z,8.90
2023-02-16T04:06:20.062Z,8.70
2023-02-16T04:09:05.688Z,8.90
2023-02-16T04:12:09.673Z,9.00
2023-02-16T04:14:55.283Z,9.00
2023-02-16T04:17:40.700Z,8.80
2023-02-16T04:20:32.063Z,8.90
2023-02-16T04:23:17.836Z,9.00
2023-02-16T04:26:03.627Z,8.90
2023-02-16T04:28:49.299Z,8.90
2023-02-16T04:31:35.114Z,9.00
2023-02-16T04:34:20.731Z,8.90
2023-02-16T04:37:07.818Z,9.00
2023-02-16T04:39:53.948Z,9.00
2023-02-16T04:42:39.754Z,9.20
2023-02-16T04:45:25.301Z,9.10
2023-02-16T04:48:10.820Z,9.20
2023-02-16T04:50:56.556Z,9.20
2023-02-16T04:53:43.508Z,9.40
2023-02-16T04:56:29.454Z,9.40
2023-02-16T04:59:16.135Z,9.40
2023-02-16T05:02:01.885Z,9.30
2023-02-16T05:04:47.798Z,9.30
2023-02-16T05:07:33.517Z,9.30
2023-02-16T05:10:20.673Z,9.20
2023-02-16T05:13:24.481Z,9.30
2023-02-16T05:16:11.557Z,9.50
2023-02-16T05:18:58.917Z,9.40
2023-02-16T05:21:44.565Z,9.20
2023-02-16T05:24:30.381Z,9.50
2023-02-16T05:27:19.291Z,9.50
2023-02-16T05:30:05.841Z,9.30
2023-02-16T05:32:51.344Z,9.20
2023-02-16T05:35:36.987Z,9.20
2023-02-16T05:38:22.654Z,9.30
2023-02-16T05:41:08.177Z,9.30
2023-02-16T05:43:57.325Z,9.20
2023-02-16T05:46:43.448Z,9.20
2023-02-16T05:49:29.344Z,9.20
2023-02-16T05:52:15.214Z,9.30
2023-02-16T05:55:00.841Z,9.20
2023-02-16T05:57:46.293Z,9.20
2023-02-16T06:00:33.722Z,9.00
2023-02-16T06:03:19.413Z,9.30
2023-02-16T06:06:06.155Z,9.20
2023-02-16T06:08:52.053Z,9.20
2023-02-16T06:11:37.812Z,9.20
2023-02-16T06:14:23.965Z,9.20
2023-02-16T06:17:11.130Z,9.10
2023-02-16T06:19:57.079Z,9.10
2023-02-16T06:22:42.436Z,9.10
2023-02-16T06:25:28.172Z,9.20
2023-02-16T06:28:13.995Z,9.20
2023-02-16T06:30:59.774Z,9.30
2023-02-16T06:33:47.801Z,9.40
2023-02-16T06:36:34.477Z,9.30
2023-02-16T06:39:20.398Z,9.40
2023-02-16T06:42:06.317Z,9.30
2023-02-16T06:44:52.037Z,9.20
2023-02-16T06:47:38.369Z,9.30
2023-02-16T06:50:25.592Z,9.30
2023-02-16T06:53:11.747Z,9.40
2023-02-16T06:55:57.341Z,9.40
2023-02-16T06:58:42.946Z,9.60
2023-02-16T07:01:28.971Z,9.50
2023-02-16T07:04:15.160Z,9.40
2023-02-16T07:07:02.744Z,9.40
2023-02-16T07:09:48.284Z,9.50
2023-02-16T07:12:34.155Z,9.60
2023-02-16T07:15:19.932Z,9.70
2023-02-16T07:18:06.082Z,9.60
2023-02-16T07:20:51.999Z,9.80
2023-02-16T07:23:41.582Z,9.80
2023-02-16T07:26:27.228Z,9.70
2023-02-16T07:29:12.823Z,9.60
2023-02-16T07:31:58.978Z,9.70
2023-02-16T07:34:45.786Z,9.70
2023-02-16T07:37:31.310Z,9.80
2023-02-16T07:40:18.363Z,9.90
2023-02-16T07:43:05.944Z,9.90
2023-02-16T07:45:52.106Z,9.90
2023-02-16T07:48:38.256Z,10.20
2023-02-16T07:51:24.621Z,10.10
2023-02-16T07:54:10.660Z,10.50
2023-02-16T07:56:57.793Z,10.50
2023-02-16T07:59:43.884Z,10.70
2023-02-16T08:02:29.802Z,10.80
2023-02-16T08:05:15.952Z,10.80
2023-02-16T08:08:01.896Z,10.70
2023-02-16T08:10:47.846Z,10.60
2023-02-16T08:13:38.062Z,10.80
2023-02-16T08:16:25.656Z,10.90
2023-02-16T08:19:13.151Z,11.10
2023-02-16T08:21:59.807Z,11.10
2023-02-16T08:24:45.656Z,11.10
2023-02-16T08:27:31.398Z,10.80
2023-02-16T08:30:20.554Z,10.80
2023-02-16T08:33:06.502Z,11.00
2023-02-16T08:35:52.422Z,11.00
2023-02-16T08:38:37.916Z,11.00
2023-02-16T08:41:28.302Z,11.20
2023-02-16T08:44:17.358Z,11.20
2023-02-16T08:47:04.468Z,11.40
2023-02-16T08:49:50.224Z,11.70
2023-02-16T08:52:36.246Z,11.80
2023-02-16T08:55:22.974Z,12.00
2023-02-16T08:58:08.415Z,12.00
2023-02-16T09:00:54.451Z,11.90
2023-02-16T09:03:43.278Z,11.80
2023-02-16T09:06:29.290Z,11.70
2023-02-16T09:09:15.319Z,11.70
2023-02-16T09:12:01.746Z,11.60
2023-02-16T09:14:47.296Z,11.70
2023-02-16T09:17:33.097Z,11.70
2023-02-16T09:20:27.600Z,11.80
2023-02-16T09:23:16.531Z,11.50
2023-02-16T09:26:03.096Z,11.50
2023-02-16T09:28:50.551Z,11.60
2023-02-16T09:31:37.447Z,11.70
2023-02-16T09:34:23.689Z,11.80
2023-02-16T09:37:10.861Z,11.80
2023-02-16T09:39:57.104Z,11.70
2023-02-16T09:42:54.152Z,11.60
2023-02-16T09:45:43.461Z,11.70
2023-02-16T09:48:35.928Z,11.90
2023-02-16T09:51:33.862Z,11.80
2023-02-16T09:54:32.571Z,11.90
2023-02-16T09:57:23.731Z,11.90
2023-02-16T10:00:23.375Z,11.90
2023-02-16T10:03:26.979Z,11.80
2023-02-16T10:06:28.287Z,11.60
2023-02-16T10:09:17.218Z,11.60
2023-02-16T10:12:09.461Z,11.60
2023-02-16T10:15:00.422Z,11.50
2023-02-16T10:17:48.909Z,11.50
2023-02-16T10:20:37.595Z,11.50
2023-02-16T10:23:45.233Z,11.80
2023-02-16T10:26:35.308Z,11.80
2023-02-16T10:29:23.972Z,11.70
2023-02-16T10:32:19.196Z,11.70
2023-02-16T10:35:15.126Z,11.30
2023-02-16T10:38:07.528Z,11.40
2023-02-16T10:40:56.508Z,11.30
2023-02-16T10:43:46.854Z,11.50
2023-02-16T10:46:40.037Z,11.50
2023-02-16T10:49:27.008Z,11.60
2023-02-16T10:52:13.007Z,11.60
2023-02-16T10:54:58.639Z,11.80
2023-02-16T10:57:50.695Z,11.80
2023-02-16T11:00:51.760Z,11.90
2023-02-16T11:03:44.994Z,11.70
2023-02-16T11:06:30.985Z,11.70
2023-02-16T11:09:16.931Z,11.80
2023-02-16T11:12:13.753Z,11.90
2023-02-16T11:15:03.561Z,11.70
2023-02-16T11:17:51.419Z,11.80
2023-02-16T11:20:53.098Z,11.80
2023-02-16T11:23:40.540Z,11.90
2023-02-16T11:26:26.976Z,11.80
2023-02-16T11:29:22.285Z,12.00
2023-02-16T11:32:10.382Z,11.90
2023-02-16T11:34:56.135Z,12.10
2023-02-16T11:37:43.326Z,12.00
2023-02-16T11:40:31.752Z,12.00
2023-02-16T11:43:18.647Z,12.30
2023-02-16T11:46:09.969Z,12.40
2023-02-16T11:48:55.488Z,12.50
2023-02-16T11:51:41.845Z,12.60
2023-02-16T11:54:28.724Z,12.80
2023-02-16T11:57:15.853Z,12.50
2023-02-16T12:00:15.753Z,13.10
2023-02-16T12:03:19.093Z,13.30
2023-02-16T12:06:18.515Z,13.50
2023-02-16T12:09:19.629Z,13.50
2023-02-16T12:12:14.714Z,13.50
2023-02-16T12:15:12.873Z,13.90
2023-02-16T12:18:22.893Z,14.00
2023-02-16T12:21:20.569Z,13.90
2023-02-16T12:24:21.951Z,13.80
2023-02-16T12:27:17.650Z,13.70
2023-02-16T12:30:13.212Z,14.40
2023-02-16T12:33:08.328Z,14.80
2023-02-16T12:36:04.828Z,15.00
2023-02-16T12:39:02.769Z,15.00
2023-02-16T12:42:00.633Z,14.40
2023-02-16T12:44:51.017Z,14.40
2023-02-16T12:47:42.441Z,13.90
2023-02-16T12:50:31.010Z,13.80
2023-02-16T12:53:22.806Z,13.90
2023-02-16T12:56:12.643Z,14.60
2023-02-16T12:59:07.383Z,14.80
2023-02-16T13:01:56.467Z,14.80
2023-02-16T13:04:45.771Z,15.00
2023-02-16T13:07:35.442Z,15.10
2023-02-16T13:10:24.457Z,14.80
2023-02-16T13:13:15.314Z,14.90
2023-02-16T13:16:05.216Z,15.20
2023-02-16T13:18:56.154Z,15.80
2023-02-16T13:22:04.601Z,16.00
2023-02-16T13:25:05.426Z,16.00
2023-02-16T13:28:03.367Z,15.00
2023-02-16T13:31:05.625Z,15.30
2023-02-16T13:34:11.975Z,15.10
2023-02-16T13:37:18.149Z,15.50
2023-02-16T13:40:27.391Z,15.70
2023-02-16T13:43:22.287Z,15.40
2023-02-16T13:46:15.563Z,15.60
2023-02-16T13:49:03.408Z,15.40
2023-02-16T13:51:49.969Z,15.10
2023-02-16T13:54:39.918Z,15.30
2023-02-16T13:58:02.302Z,15.10
2023-02-16T14:00:48.971Z,15.00
2023-02-16T14:03:38.071Z,15.20
2023-02-16T14:06:37.012Z,15.00
2023-02-16T14:09:45.922Z,15.00
2023-02-16T14:12:36.893Z,14.70
2023-02-16T14:15:22.815Z,14.80
2023-02-16T14:18:21.524Z,14.60
2023-02-16T14:21:18.267Z,14.70
2023-02-16T14:24:10.887Z,15.10
2023-02-16T14:27:01.676Z,15.40
2023-02-16T14:29:56.698Z,15.20
2023-02-16T14:32:48.935Z,15.30
2023-02-16T14:35:37.186Z,15.20
2023-02-16T14:38:27.116Z,15.00
2023-02-16T14:41:25.855Z,14.90
2023-02-16T14:44:34.059Z,14.90
2023-02-16T14:47:31.970Z,14.80
2023-02-16T14:50:29.232Z,15.00
2023-02-16T14:53:37.579Z,15.20
2023-02-16T14:56:38.408Z,15.00
2023-02-16T14:59:31.750Z,15.00
2023-02-16T15:02:27.008Z,14.70
2023-02-16T15:05:17.827Z,15.10
2023-02-16T15:08:11.411Z,15.10
2023-02-16T15:10:57.160Z,15.20
2023-02-16T15:13:45.132Z,15.40
2023-02-16T15:16:32.872Z,15.60
2023-02-16T15:19:29.599Z,15.70
2023-02-16T15:22:20.031Z,15.80
2023-02-16T15:25:19.952Z,15.70
2023-02-16T15:28:18.899Z,15.80
2023-02-16T15:31:10.794Z,15.80
2023-02-16T15:33:58.348Z,15.60
2023-02-16T15:36:45.244Z,15.30
2023-02-16T15:39:43.641Z,15.00
2023-02-16T15:42:35.476Z,14.80
2023-02-16T15:45:39.585Z,14.40
2023-02-16T15:48:30.163Z,14.30
2023-02-16T15:51:19.888Z,14.30
2023-02-16T15:54:07.952Z,14.40
2023-02-16T15:56:55.582Z,14.40
2023-02-16T15:59:47.525Z,14.20
2023-02-16T16:02:36.582Z,14.00
2023-02-16T16:05:27.513Z,14.00
2023-02-16T16:08:14.662Z,14.10
2023-02-16T16:11:01.129Z,14.10
2023-02-16T16:13:47.066Z,14.10
2023-02-16T16:16:33.871Z,14.20
2023-02-16T16:19:21.338Z,14.10
2023-02-16T16:22:30.299Z,14.10
2023-02-16T16:25:39.618Z,14.00
2023-02-16T16:28:38.184Z,14.10
2023-02-16T16:31:41.186Z,14.20
2023-02-16T16:34:38.102Z,14.00
2023-02-16T16:37:28.914Z,13.80
2023-02-16T16:40:22.741Z,13.80
2023-02-16T16:43:17.422Z,13.50
2023-02-16T16:46:13.727Z,13.50
2023-02-16T16:49:03.530Z,13.50
2023-02-16T16:51:52.792Z,13.60
2023-02-16T16:54:40.565Z,13.40
2023-02-16T16:57:26.241Z,13.40
2023-02-16T17:00:13.212Z,13.50
2023-02-16T17:02:59.181Z,13.40
2023-02-16T17:05:48.934Z,13.20
2023-02-16T17:08:35.201Z,13.30
2023-02-16T17:11:25.740Z,13.30
2023-02-16T17:14:16.769Z,13.30
2023-02-16T17:17:02.668Z,13.30
2023-02-16T17:19:48.416Z,13.20
2023-02-16T17:22:34.081Z,13.20
2023-02-16T17:25:20.246Z,13.20
2023-02-16T17:28:07.732Z,13.00
2023-02-16T17:30:53.786Z,13.00
2023-02-16T17:33:39.498Z,13.10
2023-02-16T17:36:27.290Z,13.00
2023-02-16T17:39:13.453Z,13.00
2023-02-16T17:41:59.405Z,12.90
2023-02-16T17:44:46.824Z,12.90
2023-02-16T17:47:32.334Z,12.90
2023-02-16T17:50:19.792Z,13.00
2023-02-16T17:53:11.721Z,12.90
2023-02-16T17:55:58.103Z,12.90
2023-02-16T17:58:44.640Z,13.10
2023-02-16T18:01:33.013Z,12.90
2023-02-16T18:04:18.749Z,12.80
2023-02-16T18:07:04.436Z,13.00
2023-02-16T18:09:50.253Z,13.00
2023-02-16T18:12:35.778Z,12.90
2023-02-16T18:15:21.368Z,12.90
2023-02-16T18:18:21.062Z,13.00
2023-02-16T18:21:07.552Z,13.10
2023-02-16T18:23:56.821Z,13.10
2023-02-16T18:26:42.738Z,13.10
2023-02-16T18:29:28.473Z,13.00
2023-02-16T18:32:14.379Z,13.20
2023-02-16T18:35:01.716Z,13.00
2023-02-16T18:37:47.660Z,12.80
2023-02-16T18:40:33.435Z,13.00
2023-02-16T18:43:19.863Z,12.80
2023-02-16T18:46:06.974Z,12.80
2023-02-16T18:48:53.002Z,12.80
2023-02-16T18:51:40.228Z,12.70
2023-02-16T18:54:26.301Z,12.50
2023-02-16T18:57:12.560Z,12.50
2023-02-16T18:59:59.242Z,12.40
2023-02-16T19:02:44.961Z,12.40
2023-02-16T19:05:31.077Z,12.60
2023-02-16T19:08:18.563Z,12.50
2023-02-16T19:11:04.612Z,12.70
2023-02-16T19:13:50.651Z,12.80
2023-02-16T19:16:36.611Z,12.70
2023-02-16T19:19:22.525Z,12.80
2023-02-16T19:22:08.300Z,12.60
2023-02-16T19:24:55.158Z,12.50
2023-02-16T19:27:41.018Z,12.60
2023-02-16T19:30:26.943Z,12.50
2023-02-16T19:33:12.816Z,12.70
2023-02-16T19:36:04.101Z,12.40
2023-02-16T19:38:50.181Z,12.50
2023-02-16T19:41:39.321Z,12.70
2023-02-16T19:44:24.847Z,12.60
2023-02-16T19:47:11.221Z,12.60
2023-02-16T19:49:57.317Z,12.60
2023-02-16T19:52:42.980Z,12.60
2023-02-16T19:55:29.065Z,12.70
2023-02-16T19:58:16.070Z,12.70
2023-02-16T20:01:06.943Z,12.90
2023-02-16T20:03:54.454Z,12.80
2023-02-16T20:06:41.946Z,12.80
2023-02-16T20:09:28.094Z,12.90
2023-02-16T20:12:13.996Z,12.80
2023-02-16T20:15:01.285Z,12.90
2023-02-16T20:17:46.956Z,12.90
2023-02-16T20:20:33.580Z,12.80
2023-02-16T20:23:19.994Z,12.90
2023-02-16T20:26:07.403Z,12.90
2023-02-16T20:28:54.108Z,13.00
2023-02-16T20:31:50.718Z,13.10
2023-02-16T20:34:36.903Z,13.10
2023-02-16T20:37:22.849Z,13.20
2023-02-16T20:40:09.604Z,13.00
2023-02-16T20:42:55.700Z,12.70
2023-02-16T20:45:42.961Z,12.80
2023-02-16T20:48:29.864Z,12.80
2023-02-16T20:51:18.523Z,12.90
2023-02-16T20:54:05.193Z,12.80
2023-02-16T20:56:50.645Z,12.70
2023-02-16T20:59:37.746Z,12.70
2023-02-16T21:02:23.573Z,12.80
2023-02-16T21:05:11.261Z,13.20
2023-02-16T21:07:57.091Z,13.10
2023-02-16T21:10:42.733Z,13.10
2023-02-16T21:13:28.410Z,13.30
2023-02-16T21:16:14.793Z,13.10
2023-02-16T21:19:00.729Z,13.00
2023-02-16T21:21:47.792Z,12.90
2023-02-16T21:24:33.666Z,13.00
2023-02-16T21:27:19.719Z,13.10
2023-02-16T21:30:07.379Z,13.20
2023-02-16T21:32:53.282Z,13.10
2023-02-16T21:35:39.201Z,13.20
2023-02-16T21:38:26.538Z,13.30
2023-02-16T21:41:25.189Z,13.10
2023-02-16T21:44:13.098Z,13.10
2023-02-16T21:46:58.910Z,13.00
2023-02-16T21:49:46.384Z,13.20
2023-02-16T21:52:32.091Z,13.10
2023-02-16T21:55:38.368Z,13.10
2023-02-16T21:58:30.075Z,13.20
2023-02-16T22:01:19.688Z,13.10
2023-02-16T22:04:06.524Z,13.50
2023-02-16T22:06:52.305Z,13.50
2023-02-16T22:09:37.902Z,13.30
2023-02-16T22:12:24.847Z,13.40
2023-02-16T22:15:10.819Z,13.30
2023-02-16T22:17:56.579Z,13.50
2023-02-16T22:20:42.110Z,13.40
2023-02-16T22:23:28.100Z,13.20
2023-02-16T22:26:21.716Z,12.90
2023-02-16T22:29:09.886Z,12.90
2023-02-16T22:31:55.733Z,12.80
2023-02-16T22:34:41.583Z,13.00
2023-02-16T22:37:27.328Z,13.20
2023-02-16T22:40:13.265Z,13.00
2023-02-16T22:42:58.947Z,13.10
2023-02-16T22:45:45.915Z,13.10
2023-02-16T22:48:31.616Z,13.20
2023-02-16T22:51:18.134Z,13.20
2023-02-16T22:54:05.529Z,13.30
2023-02-16T22:56:51.276Z,13.50
2023-02-16T22:59:37.089Z,13.30
2023-02-16T23:02:24.290Z,13.40
2023-02-16T23:05:09.940Z,13.10
2023-02-16T23:07:55.791Z,13.40
2023-02-16T23:10:41.772Z,13.50
2023-02-16T23:13:28.539Z,13.60
2023-02-16T23:16:17.339Z,13.60
2023-02-16T23:19:04.483Z,13.50
2023-02-16T23:21:50.452Z,13.60
2023-02-16T23:24:36.347Z,13.70
2023-02-16T23:27:22.026Z,13.40
2023-02-16T23:30:08.130Z,13.40
2023-02-16T23:32:54.237Z,13.40
2023-02-16T23:35:42.164Z,13.70
2023-02-16T23:38:27.884Z,13.50
2023-02-16T23:41:14.867Z,13.40
2023-02-16T23:44:01.311Z,13.60
2023-02-16T23:46:46.740Z,13.60
2023-02-16T23:49:32.367Z,13.70
2023-02-16T23:52:19.281Z,13.90
2023-02-16T23:55:05.862Z,13.80
2023-02-16T23:57:51.450Z,13.90
